Pagrindinis puslapis
METAR-TAF:

METAR-TAF

Oro uostai :

Nadžafas, Irakas

platuma: 31-59-23N, ilguma: 44-24-15E, Aukštis: 31 m

Dabartinis oras

Ataskaita buvo paskelbta 2 valandos ir 2 minutes, ne 16:00 UTC
Vėjas 5 kt iš Šiaurės
Temperatūra 26°C
Drėgmė 17%
Slėgis 1013 hPa
Matomumas: 8000 m

METAR: ORNI 121600Z 36005KT 8000 NSC 26/M01 Q1013 NOSIG

Laikas: 21:02 (18:02 UTC)

Prognozė

Ataskaita buvo paskelbta 1 valandą ir 2 minutes, ne 17:00 UTC
Prognozė galioja nuo 12 metu 18 UTC su 13 metu 18 UTC
Vėjas 10 kt iš Šiaurės/Šiaurės Vakarų
Matomumas: 8000 m
Tapsmas
nuo 12 metu 22 UTC su 12 metu 24 UTC
Išsisklaidę debesys ne aukštis 4000 ft
Laikinai
nuo 13 metu 06 UTC su 13 metu 10 UTC
Matomumas: 5000 m
Mažai debesys ne aukštis 2500 ft, Liūtiniai kamuoliniai debesys.
Išsisklaidę debesys ne aukštis 3000 ft
Dulkes pustymas

TAF: ORNI 121700Z 1218/1318 34010KT 8000 NSC BECMG 1222/1224 SCT040 TEMPO 1306/1310 G25KT 5000 BLDU -TSSHRA FEW025CB SCT030

Orai ataskaitas ir orų prognozės (METAR, TAF).

turimą stotys yra geltonos ir raudonos taškus žemėlapyje.

Perkelti pele per norėdami pamatyti stoties vardą.

Tada spustelėkite, norėdami matyti oro stebėjimo ir prognozės.

Norėdami pakeisti žemėlapį: spustelėkite ant žalios mygtukų su juodo kryžiaus žemyn,; žalią mygtuką su brūkšneliu, jei norite nutolinti; arba žalių rodyklių gretimoms žemėlapius.


METAR-TAF: